sensor_id;sensor_type;location;lat;lon;timestamp;P1;durP1;ratioP1;P2;durP2;ratioP2
81607;SDS011;71022;48.122;11.576;2024-03-02T00:00:40;9.02;;;3.22;;
81607;SDS011;71022;48.122;11.576;2024-03-02T00:03:07;9.23;;;3.30;;
81607;SDS011;71022;48.122;11.576;2024-03-02T00:05:36;8.13;;;3.50;;
81607;SDS011;71022;48.122;11.576;2024-03-02T00:08:04;9.25;;;3.80;;
81607;SDS011;71022;48.122;11.576;2024-03-02T00:13:08;9.27;;;3.65;;
81607;SDS011;71022;48.122;11.576;2024-03-02T00:15:46;8.15;;;3.53;;
81607;SDS011;71022;48.122;11.576;2024-03-02T00:18:16;8.40;;;3.80;;
81607;SDS011;71022;48.122;11.576;2024-03-02T00:20:46;10.10;;;3.70;;
81607;SDS011;71022;48.122;11.576;2024-03-02T00:23:14;9.25;;;3.38;;
81607;SDS011;71022;48.122;11.576;2024-03-02T00:25:44;8.80;;;3.33;;
81607;SDS011;71022;48.122;11.576;2024-03-02T00:28:14;8.73;;;3.83;;
81607;SDS011;71022;48.122;11.576;2024-03-02T00:33:27;8.90;;;3.45;;
81607;SDS011;71022;48.122;11.576;2024-03-02T00:35:57;8.60;;;3.63;;
81607;SDS011;71022;48.122;11.576;2024-03-02T00:38:24;8.80;;;3.50;;
81607;SDS011;71022;48.122;11.576;2024-03-02T00:40:51;9.07;;;3.35;;
81607;SDS011;71022;48.122;11.576;2024-03-02T00:46:02;9.55;;;3.83;;
81607;SDS011;71022;48.122;11.576;2024-03-02T00:48:29;8.20;;;3.67;;
81607;SDS011;71022;48.122;11.576;2024-03-02T00:50:58;8.98;;;3.70;;
81607;SDS011;71022;48.122;11.576;2024-03-02T00:53:26;9.40;;;3.25;;
81607;SDS011;71022;48.122;11.576;2024-03-02T00:55:53;9.23;;;3.78;;
81607;SDS011;71022;48.122;11.576;2024-03-02T00:58:20;8.15;;;3.30;;
81607;SDS011;71022;48.122;11.576;2024-03-02T01:00:48;10.75;;;3.80;;
81607;SDS011;71022;48.122;11.576;2024-03-02T01:03:15;9.38;;;3.20;;
81607;SDS011;71022;48.122;11.576;2024-03-02T01:05:42;8.90;;;3.42;;
81607;SDS011;71022;48.122;11.576;2024-03-02T01:08:10;8.73;;;3.22;;
81607;SDS011;71022;48.122;11.576;2024-03-02T01:10:38;8.18;;;3.28;;
81607;SDS011;71022;48.122;11.576;2024-03-02T01:13:05;9.38;;;3.78;;
81607;SDS011;71022;48.122;11.576;2024-03-02T01:15:33;9.10;;;3.65;;
81607;SDS011;71022;48.122;11.576;2024-03-02T01:18:00;9.27;;;3.25;;
81607;SDS011;71022;48.122;11.576;2024-03-02T01:20:28;8.20;;;3.45;;
81607;SDS011;71022;48.122;11.576;2024-03-02T01:22:55;8.32;;;3.42;;
81607;SDS011;71022;48.122;11.576;2024-03-02T01:25:22;8.63;;;3.70;;
81607;SDS011;71022;48.122;11.576;2024-03-02T01:27:49;8.35;;;3.35;;
81607;SDS011;71022;48.122;11.576;2024-03-02T01:30:17;7.43;;;2.90;;
81607;SDS011;71022;48.122;11.576;2024-03-02T01:32:44;9.43;;;3.63;;
81607;SDS011;71022;48.122;11.576;2024-03-02T01:35:11;7.53;;;3.17;;
81607;SDS011;71022;48.122;11.576;2024-03-02T01:37:38;8.32;;;3.13;;
81607;SDS011;71022;48.122;11.576;2024-03-02T01:40:05;7.85;;;3.30;;
81607;SDS011;71022;48.122;11.576;2024-03-02T01:42:36;8.57;;;3.67;;
81607;SDS011;71022;48.122;11.576;2024-03-02T01:45:05;8.15;;;3.22;;
81607;SDS011;71022;48.122;11.576;2024-03-02T01:47:33;8.70;;;3.03;;
81607;SDS011;71022;48.122;11.576;2024-03-02T01:50:00;8.13;;;3.13;;
81607;SDS011;71022;48.122;11.576;2024-03-02T01:52:28;7.35;;;2.70;;
81607;SDS011;71022;48.122;11.576;2024-03-02T01:54:55;8.30;;;3.38;;
81607;SDS011;71022;48.122;11.576;2024-03-02T01:57:23;8.55;;;3.30;;
81607;SDS011;71022;48.122;11.576;2024-03-02T01:59:50;8.40;;;3.13;;
81607;SDS011;71022;48.122;11.576;2024-03-02T02:02:17;9.00;;;3.70;;
81607;SDS011;71022;48.122;11.576;2024-03-02T02:04:45;8.15;;;3.15;;
81607;SDS011;71022;48.122;11.576;2024-03-02T02:07:12;9.10;;;3.30;;
81607;SDS011;71022;48.122;11.576;2024-03-02T02:09:41;8.25;;;3.20;;
81607;SDS011;71022;48.122;11.576;2024-03-02T02:12:09;6.88;;;2.65;;
81607;SDS011;71022;48.122;11.576;2024-03-02T02:14:36;8.65;;;3.28;;
81607;SDS011;71022;48.122;11.576;2024-03-02T02:17:04;8.77;;;3.33;;
81607;SDS011;71022;48.122;11.576;2024-03-02T02:19:31;8.93;;;3.22;;
81607;SDS011;71022;48.122;11.576;2024-03-02T02:21:58;8.95;;;3.13;;
81607;SDS011;71022;48.122;11.576;2024-03-02T02:24:25;8.02;;;2.90;;
81607;SDS011;71022;48.122;11.576;2024-03-02T02:26:53;8.35;;;3.15;;
81607;SDS011;71022;48.122;11.576;2024-03-02T02:29:20;9.07;;;3.42;;
81607;SDS011;71022;48.122;11.576;2024-03-02T02:31:47;8.40;;;3.10;;
81607;SDS011;71022;48.122;11.576;2024-03-02T02:34:14;10.10;;;3.67;;
81607;SDS011;71022;48.122;11.576;2024-03-02T02:36:42;8.77;;;3.28;;
81607;SDS011;71022;48.122;11.576;2024-03-02T02:39:11;8.27;;;3.38;;
81607;SDS011;71022;48.122;11.576;2024-03-02T02:41:40;8.63;;;3.35;;
81607;SDS011;71022;48.122;11.576;2024-03-02T02:44:07;9.35;;;3.65;;
81607;SDS011;71022;48.122;11.576;2024-03-02T02:46:35;9.30;;;3.63;;
81607;SDS011;71022;48.122;11.576;2024-03-02T02:49:02;8.98;;;3.17;;
81607;SDS011;71022;48.122;11.576;2024-03-02T02:51:29;10.00;;;3.90;;
81607;SDS011;71022;48.122;11.576;2024-03-02T02:53:56;8.25;;;3.45;;
81607;SDS011;71022;48.122;11.576;2024-03-02T02:56:24;9.43;;;3.85;;
81607;SDS011;71022;48.122;11.576;2024-03-02T02:58:51;10.15;;;3.95;;
81607;SDS011;71022;48.122;11.576;2024-03-02T03:01:18;9.20;;;3.60;;
81607;SDS011;71022;48.122;11.576;2024-03-02T03:03:46;8.13;;;3.53;;
81607;SDS011;71022;48.122;11.576;2024-03-02T03:06:13;9.88;;;3.50;;
81607;SDS011;71022;48.122;11.576;2024-03-02T03:08:40;7.43;;;3.00;;
81607;SDS011;71022;48.122;11.576;2024-03-02T03:11:07;9.45;;;3.63;;
81607;SDS011;71022;48.122;11.576;2024-03-02T03:13:35;9.10;;;3.42;;
81607;SDS011;71022;48.122;11.576;2024-03-02T03:16:02;8.57;;;3.83;;
81607;SDS011;71022;48.122;11.576;2024-03-02T03:18:30;9.50;;;3.67;;
81607;SDS011;71022;48.122;11.576;2024-03-02T03:20:57;10.52;;;4.38;;
81607;SDS011;71022;48.122;11.576;2024-03-02T03:23:24;9.25;;;3.55;;
81607;SDS011;71022;48.122;11.576;2024-03-02T03:25:52;9.05;;;3.42;;
81607;SDS011;71022;48.122;11.576;2024-03-02T03:28:20;11.75;;;4.53;;
81607;SDS011;71022;48.122;11.576;2024-03-02T03:30:47;9.55;;;3.90;;
81607;SDS011;71022;48.122;11.576;2024-03-02T03:33:14;9.57;;;4.45;;
81607;SDS011;71022;48.122;11.576;2024-03-02T03:35:41;9.07;;;3.92;;
81607;SDS011;71022;48.122;11.576;2024-03-02T03:38:09;10.02;;;4.35;;
81607;SDS011;71022;48.122;11.576;2024-03-02T03:40:36;9.73;;;3.78;;
81607;SDS011;71022;48.122;11.576;2024-03-02T03:43:04;11.98;;;3.92;;
81607;SDS011;71022;48.122;11.576;2024-03-02T03:45:31;8.13;;;3.47;;
81607;SDS011;71022;48.122;11.576;2024-03-02T03:47:58;9.43;;;3.78;;
81607;SDS011;71022;48.122;11.576;2024-03-02T03:50:25;8.73;;;3.88;;
81607;SDS011;71022;48.122;11.576;2024-03-02T03:52:53;8.93;;;3.35;;
81607;SDS011;71022;48.122;11.576;2024-03-02T03:55:20;10.30;;;4.18;;
81607;SDS011;71022;48.122;11.576;2024-03-02T03:57:47;9.63;;;4.03;;
81607;SDS011;71022;48.122;11.576;2024-03-02T04:00:14;10.68;;;4.13;;
81607;SDS011;71022;48.122;11.576;2024-03-02T04:02:42;9.13;;;3.78;;
81607;SDS011;71022;48.122;11.576;2024-03-02T04:05:09;10.32;;;4.95;;
81607;SDS011;71022;48.122;11.576;2024-03-02T04:07:38;10.68;;;4.82;;
81607;SDS011;71022;48.122;11.576;2024-03-02T04:10:08;9.75;;;4.82;;
81607;SDS011;71022;48.122;11.576;2024-03-02T04:12:39;9.27;;;4.15;;
81607;SDS011;71022;48.122;11.576;2024-03-02T04:15:07;10.23;;;4.75;;
81607;SDS011;71022;48.122;11.576;2024-03-02T04:17:35;9.45;;;3.95;;
81607;SDS011;71022;48.122;11.576;2024-03-02T04:20:03;9.15;;;3.97;;
81607;SDS011;71022;48.122;11.576;2024-03-02T04:22:34;9.63;;;4.20;;
81607;SDS011;71022;48.122;11.576;2024-03-02T04:25:02;9.30;;;4.45;;
81607;SDS011;71022;48.122;11.576;2024-03-02T04:27:31;10.32;;;4.55;;
81607;SDS011;71022;48.122;11.576;2024-03-02T04:30:00;10.30;;;4.22;;
81607;SDS011;71022;48.122;11.576;2024-03-02T04:32:27;10.68;;;4.90;;
81607;SDS011;71022;48.122;11.576;2024-03-02T04:34:54;9.45;;;4.00;;
81607;SDS011;71022;48.122;11.576;2024-03-02T04:37:22;10.80;;;4.43;;
81607;SDS011;71022;48.122;11.576;2024-03-02T04:39:49;10.88;;;4.53;;
81607;SDS011;71022;48.122;11.576;2024-03-02T04:42:16;9.60;;;4.40;;
81607;SDS011;71022;48.122;11.576;2024-03-02T04:44:43;11.90;;;4.55;;
81607;SDS011;71022;48.122;11.576;2024-03-02T04:47:11;9.90;;;4.55;;
81607;SDS011;71022;48.122;11.576;2024-03-02T04:49:38;9.50;;;3.85;;
81607;SDS011;71022;48.122;11.576;2024-03-02T04:52:05;10.98;;;4.60;;
81607;SDS011;71022;48.122;11.576;2024-03-02T04:54:32;9.73;;;4.00;;
81607;SDS011;71022;48.122;11.576;2024-03-02T04:57:02;9.98;;;4.43;;
81607;SDS011;71022;48.122;11.576;2024-03-02T04:59:29;11.02;;;5.15;;
81607;SDS011;71022;48.122;11.576;2024-03-02T05:01:57;10.50;;;4.60;;
81607;SDS011;71022;48.122;11.576;2024-03-02T05:04:25;11.45;;;4.85;;
81607;SDS011;71022;48.122;11.576;2024-03-02T05:06:52;12.32;;;5.18;;
81607;SDS011;71022;48.122;11.576;2024-03-02T05:09:22;10.13;;;4.60;;
81607;SDS011;71022;48.122;11.576;2024-03-02T05:11:49;13.10;;;4.43;;
81607;SDS011;71022;48.122;11.576;2024-03-02T05:14:31;11.70;;;4.47;;
81607;SDS011;71022;48.122;11.576;2024-03-02T05:16:59;9.95;;;4.35;;
81607;SDS011;71022;48.122;11.576;2024-03-02T05:19:26;12.63;;;4.32;;
81607;SDS011;71022;48.122;11.576;2024-03-02T05:21:53;10.75;;;4.20;;
81607;SDS011;71022;48.122;11.576;2024-03-02T05:24:20;11.15;;;4.80;;
81607;SDS011;71022;48.122;11.576;2024-03-02T05:26:47;9.48;;;4.78;;
81607;SDS011;71022;48.122;11.576;2024-03-02T05:29:15;10.55;;;4.57;;
81607;SDS011;71022;48.122;11.576;2024-03-02T05:31:43;10.07;;;4.57;;
81607;SDS011;71022;48.122;11.576;2024-03-02T05:34:10;11.30;;;4.60;;
81607;SDS011;71022;48.122;11.576;2024-03-02T05:36:38;11.05;;;4.40;;
81607;SDS011;71022;48.122;11.576;2024-03-02T05:39:06;10.75;;;4.70;;
81607;SDS011;71022;48.122;11.576;2024-03-02T05:41:35;10.77;;;4.75;;
81607;SDS011;71022;48.122;11.576;2024-03-02T05:44:03;10.77;;;4.57;;
81607;SDS011;71022;48.122;11.576;2024-03-02T05:46:30;9.55;;;4.13;;
81607;SDS011;71022;48.122;11.576;2024-03-02T05:48:59;10.82;;;4.95;;
81607;SDS011;71022;48.122;11.576;2024-03-02T05:51:27;11.80;;;4.75;;
81607;SDS011;71022;48.122;11.576;2024-03-02T05:53:54;11.45;;;4.60;;
81607;SDS011;71022;48.122;11.576;2024-03-02T05:56:21;10.88;;;5.20;;
81607;SDS011;71022;48.122;11.576;2024-03-02T05:58:49;10.82;;;4.88;;
81607;SDS011;71022;48.122;11.576;2024-03-02T06:01:35;11.88;;;4.88;;
81607;SDS011;71022;48.122;11.576;2024-03-02T06:04:02;12.43;;;5.13;;
81607;SDS011;71022;48.122;11.576;2024-03-02T06:06:30;12.35;;;4.75;;
81607;SDS011;71022;48.122;11.576;2024-03-02T06:08:59;10.93;;;4.90;;
81607;SDS011;71022;48.122;11.576;2024-03-02T06:11:27;11.15;;;4.80;;
81607;SDS011;71022;48.122;11.576;2024-03-02T06:13:55;11.68;;;5.55;;
81607;SDS011;71022;48.122;11.576;2024-03-02T06:16:22;11.65;;;5.55;;
81607;SDS011;71022;48.122;11.576;2024-03-02T06:18:49;12.25;;;5.63;;
81607;SDS011;71022;48.122;11.576;2024-03-02T06:21:17;12.50;;;5.40;;
81607;SDS011;71022;48.122;11.576;2024-03-02T06:23:45;12.85;;;5.55;;
81607;SDS011;71022;48.122;11.576;2024-03-02T06:26:12;10.30;;;4.68;;
81607;SDS011;71022;48.122;11.576;2024-03-02T06:28:40;12.15;;;5.25;;
81607;SDS011;71022;48.122;11.576;2024-03-02T06:31:07;11.95;;;5.10;;
81607;SDS011;71022;48.122;11.576;2024-03-02T06:33:34;14.23;;;5.70;;
81607;SDS011;71022;48.122;11.576;2024-03-02T06:36:02;12.65;;;5.53;;
81607;SDS011;71022;48.122;11.576;2024-03-02T06:38:29;12.68;;;5.93;;
81607;SDS011;71022;48.122;11.576;2024-03-02T06:40:59;13.40;;;5.82;;
81607;SDS011;71022;48.122;11.576;2024-03-02T06:43:26;14.13;;;5.88;;
81607;SDS011;71022;48.122;11.576;2024-03-02T06:45:53;13.82;;;6.18;;
81607;SDS011;71022;48.122;11.576;2024-03-02T06:48:21;16.13;;;7.28;;
81607;SDS011;71022;48.122;11.576;2024-03-02T06:50:49;13.68;;;6.30;;
81607;SDS011;71022;48.122;11.576;2024-03-02T06:53:17;15.75;;;6.10;;
81607;SDS011;71022;48.122;11.576;2024-03-02T06:55:45;14.18;;;5.95;;
81607;SDS011;71022;48.122;11.576;2024-03-02T06:58:13;14.88;;;6.13;;
81607;SDS011;71022;48.122;11.576;2024-03-02T07:00:42;14.52;;;6.72;;
81607;SDS011;71022;48.122;11.576;2024-03-02T07:03:10;14.63;;;6.57;;
81607;SDS011;71022;48.122;11.576;2024-03-02T07:05:39;16.23;;;6.28;;
81607;SDS011;71022;48.122;11.576;2024-03-02T07:08:06;13.60;;;6.35;;
81607;SDS011;71022;48.122;11.576;2024-03-02T07:10:33;15.13;;;6.57;;
81607;SDS011;71022;48.122;11.576;2024-03-02T07:13:01;15.48;;;6.47;;
81607;SDS011;71022;48.122;11.576;2024-03-02T07:15:28;15.70;;;7.35;;
81607;SDS011;71022;48.122;11.576;2024-03-02T07:17:55;15.13;;;7.00;;
81607;SDS011;71022;48.122;11.576;2024-03-02T07:20:22;14.93;;;6.78;;
81607;SDS011;71022;48.122;11.576;2024-03-02T07:22:50;14.52;;;6.82;;
81607;SDS011;71022;48.122;11.576;2024-03-02T07:25:17;16.70;;;6.95;;
81607;SDS011;71022;48.122;11.576;2024-03-02T07:27:47;15.98;;;6.97;;
81607;SDS011;71022;48.122;11.576;2024-03-02T07:30:14;17.25;;;6.38;;
81607;SDS011;71022;48.122;11.576;2024-03-02T07:32:43;17.38;;;7.50;;
81607;SDS011;71022;48.122;11.576;2024-03-02T07:35:12;14.73;;;7.00;;
81607;SDS011;71022;48.122;11.576;2024-03-02T07:37:41;15.35;;;7.07;;
81607;SDS011;71022;48.122;11.576;2024-03-02T07:40:09;14.82;;;6.57;;
81607;SDS011;71022;48.122;11.576;2024-03-02T07:42:40;15.57;;;6.45;;
81607;SDS011;71022;48.122;11.576;2024-03-02T07:45:07;16.40;;;7.03;;
81607;SDS011;71022;48.122;11.576;2024-03-02T07:47:35;17.50;;;7.30;;
81607;SDS011;71022;48.122;11.576;2024-03-02T07:50:02;14.80;;;6.68;;
81607;SDS011;71022;48.122;11.576;2024-03-02T07:52:33;15.75;;;6.40;;
81607;SDS011;71022;48.122;11.576;2024-03-02T07:55:00;14.45;;;5.85;;
81607;SDS011;71022;48.122;11.576;2024-03-02T07:57:27;13.82;;;5.53;;
81607;SDS011;71022;48.122;11.576;2024-03-02T07:59:55;11.60;;;5.07;;
81607;SDS011;71022;48.122;11.576;2024-03-02T08:02:22;12.98;;;5.68;;
81607;SDS011;71022;48.122;11.576;2024-03-02T08:04:49;11.45;;;5.55;;
81607;SDS011;71022;48.122;11.576;2024-03-02T08:07:17;14.50;;;6.18;;
81607;SDS011;71022;48.122;11.576;2024-03-02T08:09:44;13.05;;;5.20;;
81607;SDS011;71022;48.122;11.576;2024-03-02T08:12:12;13.48;;;5.18;;
81607;SDS011;71022;48.122;11.576;2024-03-02T08:14:39;12.38;;;4.82;;
81607;SDS011;71022;48.122;11.576;2024-03-02T08:17:07;11.73;;;5.10;;
81607;SDS011;71022;48.122;11.576;2024-03-02T08:19:36;10.95;;;5.00;;
81607;SDS011;71022;48.122;11.576;2024-03-02T08:22:04;10.68;;;4.93;;
81607;SDS011;71022;48.122;11.576;2024-03-02T08:24:32;12.23;;;4.93;;
81607;SDS011;71022;48.122;11.576;2024-03-02T08:26:59;12.70;;;5.35;;
81607;SDS011;71022;48.122;11.576;2024-03-02T08:29:27;12.25;;;5.35;;
81607;SDS011;71022;48.122;11.576;2024-03-02T08:31:54;14.40;;;5.80;;
81607;SDS011;71022;48.122;11.576;2024-03-02T08:34:21;12.90;;;4.97;;
81607;SDS011;71022;48.122;11.576;2024-03-02T08:36:49;11.45;;;5.10;;
81607;SDS011;71022;48.122;11.576;2024-03-02T08:39:16;12.80;;;5.63;;
81607;SDS011;71022;48.122;11.576;2024-03-02T08:41:44;11.48;;;4.80;;
81607;SDS011;71022;48.122;11.576;2024-03-02T08:44:12;11.15;;;5.10;;
81607;SDS011;71022;48.122;11.576;2024-03-02T08:46:40;14.20;;;5.43;;
81607;SDS011;71022;48.122;11.576;2024-03-02T08:49:08;13.52;;;6.82;;
81607;SDS011;71022;48.122;11.576;2024-03-02T08:51:36;12.13;;;5.47;;
81607;SDS011;71022;48.122;11.576;2024-03-02T08:54:03;13.18;;;5.22;;
81607;SDS011;71022;48.122;11.576;2024-03-02T08:56:31;12.50;;;5.55;;
81607;SDS011;71022;48.122;11.576;2024-03-02T08:58:58;13.43;;;5.88;;
81607;SDS011;71022;48.122;11.576;2024-03-02T09:01:26;12.93;;;6.13;;
81607;SDS011;71022;48.122;11.576;2024-03-02T09:03:53;16.92;;;8.32;;
81607;SDS011;71022;48.122;11.576;2024-03-02T09:06:20;15.68;;;6.25;;
81607;SDS011;71022;48.122;11.576;2024-03-02T09:08:48;12.60;;;5.97;;
81607;SDS011;71022;48.122;11.576;2024-03-02T09:11:16;20.67;;;9.13;;
81607;SDS011;71022;48.122;11.576;2024-03-02T09:13:43;25.83;;;11.20;;
81607;SDS011;71022;48.122;11.576;2024-03-02T09:16:11;17.08;;;6.88;;
81607;SDS011;71022;48.122;11.576;2024-03-02T09:18:38;14.15;;;6.30;;
81607;SDS011;71022;48.122;11.576;2024-03-02T09:21:06;11.65;;;6.05;;
81607;SDS011;71022;48.122;11.576;2024-03-02T09:23:34;14.20;;;6.15;;
81607;SDS011;71022;48.122;11.576;2024-03-02T09:26:01;12.38;;;5.85;;
81607;SDS011;71022;48.122;11.576;2024-03-02T09:28:29;11.80;;;5.60;;
81607;SDS011;71022;48.122;11.576;2024-03-02T09:30:57;12.70;;;6.00;;
81607;SDS011;71022;48.122;11.576;2024-03-02T09:33:27;12.68;;;5.78;;
81607;SDS011;71022;48.122;11.576;2024-03-02T09:35:54;12.57;;;6.22;;
81607;SDS011;71022;48.122;11.576;2024-03-02T09:38:21;10.27;;;4.60;;
81607;SDS011;71022;48.122;11.576;2024-03-02T09:40:48;13.52;;;5.13;;
81607;SDS011;71022;48.122;11.576;2024-03-02T09:43:16;11.23;;;4.80;;
81607;SDS011;71022;48.122;11.576;2024-03-02T09:45:43;11.02;;;4.72;;
81607;SDS011;71022;48.122;11.576;2024-03-02T09:48:12;11.15;;;5.20;;
81607;SDS011;71022;48.122;11.576;2024-03-02T09:50:39;10.63;;;5.22;;
81607;SDS011;71022;48.122;11.576;2024-03-02T09:53:06;10.88;;;4.80;;
81607;SDS011;71022;48.122;11.576;2024-03-02T09:55:34;9.32;;;3.95;;
81607;SDS011;71022;48.122;11.576;2024-03-02T09:58:01;10.43;;;3.63;;
81607;SDS011;71022;48.122;11.576;2024-03-02T10:00:29;8.90;;;3.40;;
81607;SDS011;71022;48.122;11.576;2024-03-02T10:02:57;7.78;;;3.13;;
81607;SDS011;71022;48.122;11.576;2024-03-02T10:05:25;9.10;;;3.58;;
81607;SDS011;71022;48.122;11.576;2024-03-02T10:08:00;10.27;;;4.00;;
81607;SDS011;71022;48.122;11.576;2024-03-02T10:10:38;9.43;;;3.58;;
81607;SDS011;71022;48.122;11.576;2024-03-02T10:13:07;8.73;;;3.10;;
81607;SDS011;71022;48.122;11.576;2024-03-02T10:15:39;9.13;;;2.90;;
81607;SDS011;71022;48.122;11.576;2024-03-02T10:18:08;8.70;;;3.30;;
81607;SDS011;71022;48.122;11.576;2024-03-02T10:20:38;9.07;;;3.53;;
81607;SDS011;71022;48.122;11.576;2024-03-02T10:23:12;9.00;;;3.22;;
81607;SDS011;71022;48.122;11.576;2024-03-02T10:25:41;8.23;;;3.30;;
81607;SDS011;71022;48.122;11.576;2024-03-02T10:28:23;10.07;;;3.20;;
81607;SDS011;71022;48.122;11.576;2024-03-02T10:30:51;7.55;;;2.72;;
81607;SDS011;71022;48.122;11.576;2024-03-02T10:33:19;8.10;;;2.72;;
81607;SDS011;71022;48.122;11.576;2024-03-02T10:35:47;9.27;;;2.92;;
81607;SDS011;71022;48.122;11.576;2024-03-02T10:38:17;8.07;;;2.92;;
81607;SDS011;71022;48.122;11.576;2024-03-02T10:40:47;9.48;;;3.25;;
81607;SDS011;71022;48.122;11.576;2024-03-02T10:43:15;9.13;;;3.25;;
81607;SDS011;71022;48.122;11.576;2024-03-02T10:45:44;8.52;;;3.05;;
81607;SDS011;71022;48.122;11.576;2024-03-02T10:48:16;8.25;;;2.47;;
81607;SDS011;71022;48.122;11.576;2024-03-02T10:50:43;7.68;;;2.67;;
81607;SDS011;71022;48.122;11.576;2024-03-02T10:53:10;10.60;;;3.30;;
81607;SDS011;71022;48.122;11.576;2024-03-02T10:55:37;8.63;;;3.50;;
81607;SDS011;71022;48.122;11.576;2024-03-02T10:58:05;8.48;;;3.05;;
81607;SDS011;71022;48.122;11.576;2024-03-02T11:00:34;9.65;;;3.20;;
81607;SDS011;71022;48.122;11.576;2024-03-02T11:03:06;11.07;;;4.13;;
81607;SDS011;71022;48.122;11.576;2024-03-02T11:05:36;12.82;;;4.00;;
81607;SDS011;71022;48.122;11.576;2024-03-02T11:08:06;11.18;;;4.38;;
81607;SDS011;71022;48.122;11.576;2024-03-02T11:10:36;10.70;;;4.35;;
81607;SDS011;71022;48.122;11.576;2024-03-02T11:13:09;10.60;;;4.20;;
81607;SDS011;71022;48.122;11.576;2024-03-02T11:15:39;13.73;;;5.97;;
81607;SDS011;71022;48.122;11.576;2024-03-02T11:18:09;15.02;;;5.90;;
81607;SDS011;71022;48.122;11.576;2024-03-02T11:20:40;14.88;;;5.75;;
81607;SDS011;71022;48.122;11.576;2024-03-02T11:23:09;16.15;;;5.85;;
81607;SDS011;71022;48.122;11.576;2024-03-02T11:25:36;13.40;;;5.45;;
81607;SDS011;71022;48.122;11.576;2024-03-02T11:28:05;14.73;;;5.78;;
81607;SDS011;71022;48.122;11.576;2024-03-02T11:33:08;13.05;;;5.30;;
81607;SDS011;71022;48.122;11.576;2024-03-02T11:35:41;13.23;;;5.15;;
81607;SDS011;71022;48.122;11.576;2024-03-02T11:38:10;16.05;;;5.68;;
81607;SDS011;71022;48.122;11.576;2024-03-02T11:40:40;14.13;;;5.30;;
81607;SDS011;71022;48.122;11.576;2024-03-02T11:43:08;10.77;;;4.72;;
81607;SDS011;71022;48.122;11.576;2024-03-02T11:45:36;10.90;;;3.80;;
81607;SDS011;71022;48.122;11.576;2024-03-02T11:48:09;13.07;;;4.10;;
81607;SDS011;71022;48.122;11.576;2024-03-02T11:50:40;12.27;;;4.38;;
81607;SDS011;71022;48.122;11.576;2024-03-02T11:53:10;12.75;;;4.57;;
81607;SDS011;71022;48.122;11.576;2024-03-02T11:55:39;9.43;;;3.47;;
81607;SDS011;71022;48.122;11.576;2024-03-02T11:58:07;10.57;;;4.10;;
81607;SDS011;71022;48.122;11.576;2024-03-02T12:00:35;9.95;;;3.45;;
81607;SDS011;71022;48.122;11.576;2024-03-02T12:05:34;15.10;;;3.97;;
81607;SDS011;71022;48.122;11.576;2024-03-02T12:08:03;14.25;;;5.20;;
81607;SDS011;71022;48.122;11.576;2024-03-02T12:10:32;11.07;;;4.70;;
81607;SDS011;71022;48.122;11.576;2024-03-02T12:13:04;13.23;;;5.15;;
81607;SDS011;71022;48.122;11.576;2024-03-02T12:15:38;21.05;;;8.60;;
81607;SDS011;71022;48.122;11.576;2024-03-02T12:18:07;13.02;;;5.07;;
81607;SDS011;71022;48.122;11.576;2024-03-02T12:20:34;12.25;;;4.63;;
81607;SDS011;71022;48.122;11.576;2024-03-02T12:23:02;13.65;;;4.85;;
81607;SDS011;71022;48.122;11.576;2024-03-02T12:25:31;11.38;;;4.03;;
81607;SDS011;71022;48.122;11.576;2024-03-02T12:28:00;11.73;;;4.10;;
81607;SDS011;71022;48.122;11.576;2024-03-02T12:30:29;11.00;;;5.07;;
81607;SDS011;71022;48.122;11.576;2024-03-02T12:32:58;13.02;;;4.40;;
81607;SDS011;71022;48.122;11.576;2024-03-02T12:35:25;12.32;;;4.65;;
81607;SDS011;71022;48.122;11.576;2024-03-02T12:37:53;13.13;;;5.25;;
81607;SDS011;71022;48.122;11.576;2024-03-02T12:40:21;14.18;;;5.22;;
81607;SDS011;71022;48.122;11.576;2024-03-02T12:42:50;11.85;;;4.28;;
81607;SDS011;71022;48.122;11.576;2024-03-02T12:45:18;14.07;;;5.57;;
81607;SDS011;71022;48.122;11.576;2024-03-02T12:47:51;13.52;;;5.13;;
81607;SDS011;71022;48.122;11.576;2024-03-02T12:50:19;14.98;;;6.68;;
81607;SDS011;71022;48.122;11.576;2024-03-02T12:52:51;13.88;;;6.43;;
81607;SDS011;71022;48.122;11.576;2024-03-02T12:55:20;14.40;;;5.63;;
81607;SDS011;71022;48.122;11.576;2024-03-02T12:57:52;13.10;;;4.95;;
81607;SDS011;71022;48.122;11.576;2024-03-02T13:00:21;11.63;;;4.10;;
81607;SDS011;71022;48.122;11.576;2024-03-02T13:02:50;11.57;;;4.05;;
81607;SDS011;71022;48.122;11.576;2024-03-02T13:05:19;10.10;;;3.63;;
81607;SDS011;71022;48.122;11.576;2024-03-02T13:07:47;10.60;;;3.67;;
81607;SDS011;71022;48.122;11.576;2024-03-02T13:10:16;9.75;;;4.10;;
81607;SDS011;71022;48.122;11.576;2024-03-02T13:12:44;10.00;;;4.00;;
81607;SDS011;71022;48.122;11.576;2024-03-02T13:15:12;11.50;;;4.55;;
81607;SDS011;71022;48.122;11.576;2024-03-02T13:17:46;13.43;;;5.30;;
81607;SDS011;71022;48.122;11.576;2024-03-02T13:20:14;15.57;;;6.80;;
81607;SDS011;71022;48.122;11.576;2024-03-02T13:22:42;13.77;;;6.30;;
81607;SDS011;71022;48.122;11.576;2024-03-02T13:25:09;14.07;;;7.00;;
81607;SDS011;71022;48.122;11.576;2024-03-02T13:27:38;14.50;;;6.45;;
81607;SDS011;71022;48.122;11.576;2024-03-02T13:30:06;17.13;;;8.00;;
81607;SDS011;71022;48.122;11.576;2024-03-02T13:32:36;16.40;;;7.47;;
81607;SDS011;71022;48.122;11.576;2024-03-02T13:35:04;16.75;;;6.85;;
81607;SDS011;71022;48.122;11.576;2024-03-02T13:37:32;14.60;;;6.30;;
81607;SDS011;71022;48.122;11.576;2024-03-02T13:39:59;12.65;;;4.80;;
81607;SDS011;71022;48.122;11.576;2024-03-02T13:42:26;11.73;;;5.72;;
81607;SDS011;71022;48.122;11.576;2024-03-02T13:44:54;11.73;;;5.22;;
81607;SDS011;71022;48.122;11.576;2024-03-02T13:47:22;15.73;;;6.68;;
81607;SDS011;71022;48.122;11.576;2024-03-02T13:49:49;13.32;;;6.32;;
81607;SDS011;71022;48.122;11.576;2024-03-02T13:52:16;15.10;;;6.15;;
81607;SDS011;71022;48.122;11.576;2024-03-02T13:54:45;18.05;;;7.03;;
81607;SDS011;71022;48.122;11.576;2024-03-02T13:57:13;14.65;;;6.43;;
81607;SDS011;71022;48.122;11.576;2024-03-02T13:59:41;15.93;;;6.50;;
81607;SDS011;71022;48.122;11.576;2024-03-02T14:02:10;13.85;;;6.13;;
81607;SDS011;71022;48.122;11.576;2024-03-02T14:04:38;12.77;;;5.55;;
81607;SDS011;71022;48.122;11.576;2024-03-02T14:07:06;12.75;;;5.22;;
81607;SDS011;71022;48.122;11.576;2024-03-02T14:09:34;15.05;;;5.57;;
81607;SDS011;71022;48.122;11.576;2024-03-02T14:12:02;14.25;;;4.95;;
81607;SDS011;71022;48.122;11.576;2024-03-02T14:14:30;11.85;;;4.35;;
81607;SDS011;71022;48.122;11.576;2024-03-02T14:16:58;12.98;;;4.82;;
81607;SDS011;71022;48.122;11.576;2024-03-02T14:19:32;12.38;;;4.90;;
81607;SDS011;71022;48.122;11.576;2024-03-02T14:21:59;11.18;;;4.15;;
81607;SDS011;71022;48.122;11.576;2024-03-02T14:24:27;12.27;;;4.32;;
81607;SDS011;71022;48.122;11.576;2024-03-02T14:26:56;13.75;;;4.60;;
81607;SDS011;71022;48.122;11.576;2024-03-02T14:29:45;12.07;;;4.65;;
81607;SDS011;71022;48.122;11.576;2024-03-02T14:32:13;16.27;;;6.05;;
81607;SDS011;71022;48.122;11.576;2024-03-02T14:34:40;15.52;;;6.03;;
81607;SDS011;71022;48.122;11.576;2024-03-02T14:37:07;14.20;;;5.68;;
81607;SDS011;71022;48.122;11.576;2024-03-02T14:39:35;14.10;;;6.18;;
81607;SDS011;71022;48.122;11.576;2024-03-02T14:42:03;14.43;;;5.85;;
81607;SDS011;71022;48.122;11.576;2024-03-02T14:44:30;14.95;;;5.32;;